createdAt,value
2019-02-07T00:00:32.788Z,20.50
2019-02-07T00:03:01.658Z,23.73
2019-02-07T00:05:30.230Z,18.65
2019-02-07T00:07:58.736Z,21.68
2019-02-07T00:10:27.326Z,21.30
2019-02-07T00:12:56.502Z,20.30
2019-02-07T00:15:24.949Z,26.68
2019-02-07T00:17:53.388Z,14.25
2019-02-07T00:20:22.070Z,24.92
2019-02-07T00:22:50.582Z,26.70
2019-02-07T00:25:19.166Z,22.00
2019-02-07T00:27:47.873Z,24.00
2019-02-07T00:30:18.917Z,28.95
2019-02-07T00:32:47.594Z,21.30
2019-02-07T00:35:16.429Z,24.35
2019-02-07T00:37:45.233Z,21.90
2019-02-07T00:40:18.134Z,22.62
2019-02-07T00:42:47.089Z,18.77
2019-02-07T00:45:17.550Z,23.73
2019-02-07T00:47:46.369Z,20.65
2019-02-07T00:50:16.307Z,15.13
2019-02-07T00:52:44.990Z,24.15
2019-02-07T00:55:18.209Z,29.52
2019-02-07T00:57:46.824Z,21.17
2019-02-07T01:00:23.923Z,16.23
2019-02-07T01:02:52.797Z,23.73
2019-02-07T01:05:22.892Z,17.32
2019-02-07T01:07:52.070Z,28.05
2019-02-07T01:10:26.805Z,20.55
2019-02-07T01:12:55.595Z,35.05
2019-02-07T01:15:25.259Z,17.80
2019-02-07T01:17:54.109Z,23.57
2019-02-07T01:20:22.606Z,22.30
2019-02-07T01:22:51.049Z,17.32
2019-02-07T01:25:24.273Z,16.95
2019-02-07T01:27:53.669Z,21.77
2019-02-07T01:30:26.294Z,15.25
2019-02-07T01:32:55.191Z,18.00
2019-02-07T01:35:23.904Z,22.50
2019-02-07T01:37:53.658Z,19.12
2019-02-07T01:40:23.018Z,18.35
2019-02-07T01:42:51.698Z,16.87
2019-02-07T01:45:24.284Z,24.05
2019-02-07T01:47:52.721Z,22.73
2019-02-07T01:50:26.161Z,15.35
2019-02-07T01:52:54.949Z,19.77
2019-02-07T01:55:23.812Z,24.47
2019-02-07T01:57:52.333Z,18.32
2019-02-07T02:00:21.650Z,23.85
2019-02-07T02:02:50.431Z,15.65
2019-02-07T02:05:20.121Z,21.60
2019-02-07T02:07:50.309Z,19.92
2019-02-07T02:10:24.493Z,17.40
2019-02-07T02:12:53.065Z,21.25
2019-02-07T02:15:24.898Z,23.07
2019-02-07T02:17:54.000Z,17.65
2019-02-07T02:20:24.633Z,17.90
2019-02-07T02:22:54.612Z,20.48
2019-02-07T02:25:23.595Z,27.17
2019-02-07T02:27:52.571Z,17.50
2019-02-07T02:30:35.600Z,22.62
2019-02-07T02:33:05.209Z,14.83
2019-02-07T02:35:33.833Z,22.98
2019-02-07T02:38:02.289Z,13.45
2019-02-07T02:40:31.125Z,13.22
2019-02-07T02:42:59.562Z,13.03
2019-02-07T02:45:37.210Z,23.87
2019-02-07T02:47:58.453Z,28.07
2019-02-07T02:50:28.243Z,24.75
2019-02-07T02:52:56.811Z,18.85
2019-02-07T02:55:32.424Z,19.62
2019-02-07T02:58:01.088Z,22.17
2019-02-07T03:00:49.493Z,23.27
2019-02-07T03:03:19.918Z,26.85
2019-02-07T03:06:06.551Z,24.45
2019-02-07T03:08:36.609Z,20.12
2019-02-07T03:11:15.561Z,15.45
2019-02-07T03:14:03.611Z,21.27
2019-02-07T03:16:34.041Z,21.85
2019-02-07T03:19:04.466Z,24.90
2019-02-07T03:21:37.557Z,24.10
2019-02-07T03:24:14.017Z,17.40
2019-02-07T03:26:44.165Z,19.12
2019-02-07T03:29:31.085Z,19.70
2019-02-07T03:32:03.947Z,25.32
2019-02-07T03:34:34.386Z,16.52
2019-02-07T03:37:21.380Z,19.60
2019-02-07T03:39:51.466Z,23.42
2019-02-07T03:42:37.984Z,24.25
2019-02-07T03:45:26.205Z,17.80
2019-02-07T03:48:08.677Z,22.15
2019-02-07T03:50:39.105Z,24.12
2019-02-07T03:53:21.461Z,21.57
2019-02-07T03:55:51.821Z,19.12
2019-02-07T03:58:38.057Z,17.10
2019-02-07T04:01:14.689Z,19.30
2019-02-07T04:03:45.261Z,19.80
2019-02-07T04:06:24.245Z,22.22
2019-02-07T04:09:10.856Z,24.75
2019-02-07T04:11:49.633Z,18.52
2019-02-07T04:14:36.164Z,13.88
2019-02-07T04:17:06.230Z,22.48
2019-02-07T04:19:36.848Z,22.75
2019-02-07T04:22:07.873Z,27.85
2019-02-07T04:24:38.306Z,22.40
2019-02-07T04:27:14.778Z,24.70
2019-02-07T04:29:50.973Z,23.35
2019-02-07T04:32:21.052Z,15.03
2019-02-07T04:35:03.431Z,21.42
2019-02-07T04:37:33.594Z,21.57
2019-02-07T04:40:12.089Z,16.35
2019-02-07T04:42:58.310Z,24.77
2019-02-07T04:45:28.376Z,22.70
2019-02-07T04:48:04.401Z,17.57
2019-02-07T04:50:34.537Z,26.60
2019-02-07T04:53:11.919Z,18.98
2019-02-07T04:55:45.154Z,21.68
2019-02-07T04:58:33.785Z,19.75
2019-02-07T05:01:09.850Z,23.00
2019-02-07T05:03:42.798Z,31.73
2019-02-07T05:06:31.191Z,19.77
2019-02-07T05:09:13.137Z,16.67
2019-02-07T05:11:49.287Z,14.50
2019-02-07T05:14:32.009Z,14.13
2019-02-07T05:17:05.197Z,12.33
2019-02-07T05:19:52.306Z,21.20
2019-02-07T05:22:31.437Z,17.15
2019-02-07T05:25:18.025Z,30.05
2019-02-07T05:27:53.778Z,17.90
2019-02-07T05:30:35.737Z,21.50
2019-02-07T05:33:09.210Z,15.45
2019-02-07T05:35:54.644Z,22.80
2019-02-07T05:38:27.299Z,15.55
2019-02-07T05:41:13.442Z,19.07
2019-02-07T05:43:43.886Z,17.60
2019-02-07T05:46:22.557Z,18.92
2019-02-07T05:48:52.921Z,18.73
2019-02-07T05:51:23.021Z,19.25
2019-02-07T05:54:07.885Z,21.10
2019-02-07T05:56:46.916Z,22.00
2019-02-07T05:59:33.652Z,24.10
2019-02-07T06:02:07.196Z,16.87
2019-02-07T06:04:40.166Z,22.20
2019-02-07T06:07:18.799Z,32.88
2019-02-07T06:10:05.167Z,24.37
2019-02-07T06:12:38.549Z,20.08
2019-02-07T06:15:22.189Z,21.42
2019-02-07T06:17:52.278Z,18.90
2019-02-07T06:20:22.340Z,22.02
2019-02-07T06:23:01.141Z,37.98
2019-02-07T06:25:48.286Z,36.50
2019-02-07T06:28:33.520Z,24.92
2019-02-07T06:31:03.597Z,26.35
2019-02-07T06:33:34.013Z,25.55
2019-02-07T06:36:12.777Z,26.42
2019-02-07T06:38:48.878Z,23.47
2019-02-07T06:41:18.945Z,25.85
2019-02-07T06:43:51.797Z,39.18
2019-02-07T06:46:38.752Z,26.42
2019-02-07T06:49:18.508Z,25.30
2019-02-07T06:51:48.654Z,30.65
2019-02-07T06:54:37.221Z,38.42
2019-02-07T06:57:25.929Z,29.37
2019-02-07T06:59:56.005Z,29.95
2019-02-07T07:02:26.073Z,33.28
2019-02-07T07:05:08.305Z,25.43
2019-02-07T07:07:38.729Z,32.80
2019-02-07T07:10:31.169Z,28.17
2019-02-07T07:13:10.613Z,34.67
2019-02-07T07:15:43.174Z,30.20
2019-02-07T07:18:29.712Z,39.50
2019-02-07T07:21:08.806Z,28.52
2019-02-07T07:23:55.432Z,40.00
2019-02-07T07:26:42.144Z,26.40
2019-02-07T07:29:21.428Z,29.75
2019-02-07T07:32:07.981Z,24.72
2019-02-07T07:34:44.347Z,24.82
2019-02-07T07:37:30.462Z,29.90
2019-02-07T07:40:00.602Z,38.85
2019-02-07T07:42:30.994Z,31.55
2019-02-07T07:45:17.385Z,28.87
2019-02-07T07:47:59.525Z,30.45
2019-02-07T07:50:38.572Z,28.77
2019-02-07T07:53:24.692Z,26.17
2019-02-07T07:56:07.125Z,24.87
2019-02-07T07:58:37.219Z,29.32
2019-02-07T08:01:23.697Z,28.07
2019-02-07T08:03:53.781Z,28.00
2019-02-07T08:06:26.865Z,34.13
2019-02-07T08:09:06.090Z,25.32
2019-02-07T08:11:48.702Z,25.62
2019-02-07T08:14:31.291Z,25.70
2019-02-07T08:17:04.407Z,23.80
2019-02-07T08:19:37.386Z,31.05
2019-02-07T08:22:19.654Z,25.32
2019-02-07T08:24:55.837Z,22.15
2019-02-07T08:27:25.970Z,25.85
2019-02-07T08:29:59.275Z,26.87
2019-02-07T08:32:29.701Z,36.48
2019-02-07T08:35:05.553Z,25.80
2019-02-07T08:37:38.597Z,36.45
2019-02-07T08:40:21.156Z,43.08
2019-02-07T08:43:06.638Z,22.50
2019-02-07T08:45:52.192Z,21.77
2019-02-07T08:48:22.955Z,24.85
2019-02-07T08:51:05.237Z,21.85
2019-02-07T08:53:50.113Z,27.62
2019-02-07T08:56:32.749Z,24.60
2019-02-07T08:59:02.905Z,25.60
2019-02-07T09:01:42.210Z,32.78
2019-02-07T09:04:15.031Z,34.53
2019-02-07T09:06:45.485Z,24.82
2019-02-07T09:09:25.105Z,22.27
2019-02-07T09:11:55.194Z,25.20
2019-02-07T09:14:28.253Z,30.88
2019-02-07T09:16:58.683Z,28.60
2019-02-07T09:19:46.032Z,24.05
2019-02-07T09:22:34.277Z,20.55
2019-02-07T09:25:21.140Z,24.70
2019-02-07T09:28:07.877Z,26.40
2019-02-07T09:30:43.806Z,29.60
2019-02-07T09:33:20.038Z,33.92
2019-02-07T09:36:04.464Z,28.95
2019-02-07T09:38:25.245Z,26.95
2019-02-07T09:40:55.698Z,27.67
2019-02-07T09:43:26.160Z,26.60
2019-02-07T09:46:02.066Z,19.23
2019-02-07T09:48:35.057Z,31.42
2019-02-07T09:51:21.397Z,31.52
2019-02-07T09:53:51.769Z,25.52
2019-02-07T09:56:34.385Z,29.98
2019-02-07T09:59:20.814Z,24.37
2019-02-07T10:02:00.529Z,23.90
2019-02-07T10:04:30.966Z,22.42
2019-02-07T10:07:17.390Z,24.77
2019-02-07T10:10:04.002Z,30.62
2019-02-07T10:12:34.395Z,21.97
2019-02-07T10:15:07.262Z,30.30
2019-02-07T10:17:37.470Z,27.65
2019-02-07T10:20:19.293Z,23.55
2019-02-07T10:22:58.429Z,20.20
2019-02-07T10:25:28.513Z,24.15
2019-02-07T10:28:04.606Z,32.03
2019-02-07T10:30:34.861Z,21.73
2019-02-07T10:33:08.054Z,26.33
2019-02-07T10:35:56.459Z,24.15
2019-02-07T10:38:44.787Z,28.35
2019-02-07T10:44:03.154Z,25.35
2019-02-07T10:46:33.794Z,23.60
2019-02-07T10:49:09.864Z,25.10
2019-02-07T10:51:43.181Z,24.80
2019-02-07T10:54:17.284Z,21.23
2019-02-07T10:57:04.201Z,26.17
2019-02-07T10:59:43.653Z,24.00
2019-02-07T11:02:23.482Z,21.65
2019-02-07T11:05:06.298Z,26.42
2019-02-07T11:07:48.724Z,25.50
2019-02-07T11:10:22.117Z,26.95
2019-02-07T11:13:07.285Z,24.10
2019-02-07T11:15:37.349Z,20.05
2019-02-07T11:18:07.925Z,35.55
2019-02-07T11:20:56.541Z,30.05
2019-02-07T11:23:43.510Z,25.82
2019-02-07T11:26:22.654Z,28.47
2019-02-07T11:29:09.333Z,23.85
2019-02-07T11:31:42.545Z,25.75
2019-02-07T11:34:24.745Z,28.80
2019-02-07T11:36:55.157Z,26.48
2019-02-07T11:39:41.866Z,28.85
2019-02-07T11:42:18.458Z,26.35
2019-02-07T11:44:51.907Z,20.55
2019-02-07T11:47:22.569Z,23.05
2019-02-07T11:49:56.194Z,27.77
2019-02-07T11:52:32.946Z,25.57
2019-02-07T11:55:08.721Z,18.20
2019-02-07T11:57:38.973Z,29.65
2019-02-07T12:00:26.978Z,22.77
2019-02-07T12:02:59.596Z,32.90
2019-02-07T12:05:48.314Z,29.77
2019-02-07T12:08:27.150Z,32.33
2019-02-07T12:10:59.968Z,34.05
2019-02-07T12:13:30.028Z,26.02
2019-02-07T12:16:15.301Z,32.65
2019-02-07T12:19:00.436Z,24.87
2019-02-07T12:21:42.058Z,29.45
2019-02-07T12:24:30.103Z,26.35
2019-02-07T12:27:00.530Z,36.95
2019-02-07T12:29:33.725Z,29.92
2019-02-07T12:32:04.082Z,26.27
2019-02-07T12:34:50.428Z,27.27
2019-02-07T12:37:26.449Z,25.90
2019-02-07T12:39:56.532Z,26.52
2019-02-07T12:42:43.156Z,30.95
2019-02-07T12:45:29.597Z,23.70
2019-02-07T12:48:04.086Z,38.92
2019-02-07T12:50:46.563Z,26.07
2019-02-07T12:53:19.654Z,26.87
2019-02-07T12:55:52.385Z,28.00
2019-02-07T12:58:24.429Z,24.98
2019-02-07T13:00:57.294Z,31.15
2019-02-07T13:03:39.897Z,25.80
2019-02-07T13:06:19.438Z,33.20
2019-02-07T13:08:52.633Z,32.70
2019-02-07T13:11:29.236Z,33.98
2019-02-07T13:14:08.537Z,32.42
2019-02-07T13:16:41.837Z,26.12
2019-02-07T13:19:12.243Z,29.75
2019-02-07T13:21:42.928Z,30.52
2019-02-07T13:24:25.176Z,41.50
2019-02-07T13:27:04.409Z,29.42
2019-02-07T13:29:34.861Z,28.23
2019-02-07T13:32:12.744Z,27.37
2019-02-07T13:34:48.845Z,29.45
2019-02-07T13:37:19.245Z,28.92
2019-02-07T13:39:49.669Z,36.10
2019-02-07T13:42:36.604Z,35.23
2019-02-07T13:45:13.883Z,27.37
2019-02-07T13:47:46.898Z,32.73
2019-02-07T13:50:20.570Z,33.75
2019-02-07T13:52:59.818Z,36.55
2019-02-07T13:55:38.725Z,36.17
2019-02-07T13:58:17.981Z,32.60
2019-02-07T14:00:48.314Z,38.42
2019-02-07T14:03:27.726Z,37.73
2019-02-07T14:06:03.813Z,31.27
2019-02-07T14:08:43.227Z,38.38
2019-02-07T14:11:28.903Z,39.55
2019-02-07T14:14:01.730Z,34.48
2019-02-07T14:16:31.819Z,38.63
2019-02-07T14:19:05.117Z,37.40
2019-02-07T14:21:44.741Z,39.45
2019-02-07T14:24:24.118Z,42.23
2019-02-07T14:27:00.320Z,46.65
2019-02-07T14:29:30.670Z,39.60
2019-02-07T14:32:00.741Z,37.65
2019-02-07T14:34:36.953Z,41.18
2019-02-07T14:37:31.953Z,42.10
2019-02-07T14:40:27.228Z,34.85
2019-02-07T14:43:09.674Z,38.95
2019-02-07T14:45:42.644Z,36.98
2019-02-07T14:48:12.705Z,39.92
2019-02-07T14:50:41.569Z,41.77
2019-02-07T14:53:09.993Z,39.70
2019-02-07T14:55:38.680Z,45.15
2019-02-07T14:58:07.179Z,37.67
2019-02-07T15:00:36.108Z,39.83
2019-02-07T15:03:04.675Z,39.18
2019-02-07T15:05:33.114Z,37.90
2019-02-07T15:08:02.270Z,39.98
2019-02-07T15:10:30.709Z,46.75
2019-02-07T15:13:01.174Z,43.33
2019-02-07T15:15:29.658Z,36.85
2019-02-07T15:17:58.650Z,48.20
2019-02-07T15:20:27.098Z,42.23
2019-02-07T15:22:55.896Z,43.58
2019-02-07T15:25:24.406Z,37.70
2019-02-07T15:27:53.089Z,49.05
2019-02-07T15:30:22.290Z,44.93
2019-02-07T15:32:50.713Z,44.75
2019-02-07T15:35:32.393Z,45.28
2019-02-07T15:38:00.813Z,34.63
2019-02-07T15:40:29.498Z,67.72
2019-02-07T15:42:58.826Z,46.85
2019-02-07T15:45:27.603Z,48.25
2019-02-07T15:47:58.849Z,43.02
2019-02-07T15:50:37.586Z,44.95
2019-02-07T15:53:00.246Z,46.53
2019-02-07T15:55:28.669Z,40.23
2019-02-07T15:57:57.545Z,37.78
2019-02-07T16:00:38.192Z,47.70
2019-02-07T16:03:08.513Z,42.98
2019-02-07T16:05:37.281Z,48.28
2019-02-07T16:08:05.961Z,42.58
2019-02-07T16:10:34.453Z,36.50
2019-02-07T16:13:02.965Z,47.25
2019-02-07T16:15:31.718Z,49.98
2019-02-07T16:18:00.506Z,46.15
2019-02-07T16:20:29.546Z,46.48
2019-02-07T16:22:59.010Z,44.20
2019-02-07T16:25:27.849Z,42.70
2019-02-07T16:27:56.685Z,43.50
2019-02-07T16:30:25.240Z,36.53
2019-02-07T16:32:53.682Z,42.08
2019-02-07T16:35:22.581Z,51.35
2019-02-07T16:37:51.950Z,49.10
2019-02-07T16:40:22.269Z,44.45
2019-02-07T16:42:51.587Z,51.08
2019-02-07T16:45:26.833Z,52.78
2019-02-07T16:47:55.888Z,57.90
2019-02-07T16:50:27.223Z,63.70
2019-02-07T16:52:57.177Z,46.95
2019-02-07T16:55:26.046Z,46.05
2019-02-07T16:57:54.617Z,55.52
2019-02-07T17:00:31.712Z,45.17
2019-02-07T17:03:00.505Z,49.03
2019-02-07T17:05:28.992Z,44.27
2019-02-07T17:07:57.601Z,67.30
2019-02-07T17:10:31.777Z,49.10
2019-02-07T17:13:00.934Z,57.05
2019-02-07T17:15:29.732Z,66.65
2019-02-07T17:17:58.176Z,49.38
2019-02-07T17:20:31.455Z,50.48
2019-02-07T17:23:00.064Z,47.88
2019-02-07T17:25:30.922Z,45.92
2019-02-07T17:27:59.501Z,46.85
2019-02-07T17:30:28.563Z,51.33
2019-02-07T17:32:57.973Z,48.15
2019-02-07T17:35:26.576Z,43.50
2019-02-07T17:37:55.361Z,51.88
2019-02-07T17:40:26.273Z,50.52
2019-02-07T17:42:55.389Z,46.30
2019-02-07T17:45:26.613Z,50.70
2019-02-07T17:47:55.610Z,55.30
2019-02-07T17:50:35.775Z,49.27
2019-02-07T17:53:09.362Z,56.25
2019-02-07T17:55:37.801Z,42.10
2019-02-07T17:58:07.441Z,54.48
2019-02-07T18:00:43.137Z,54.45
2019-02-07T18:03:12.001Z,51.65
2019-02-07T18:05:40.513Z,48.52
2019-02-07T18:08:09.548Z,47.30
2019-02-07T18:10:38.121Z,50.65
2019-02-07T18:13:07.353Z,56.25
2019-02-07T18:15:36.149Z,51.35
2019-02-07T18:18:05.319Z,45.38
2019-02-07T18:20:33.829Z,55.63
2019-02-07T18:23:02.249Z,45.43
2019-02-07T18:25:31.019Z,39.95
2019-02-07T18:27:59.637Z,55.33
2019-02-07T18:30:28.585Z,52.62
2019-02-07T18:32:57.339Z,38.50
2019-02-07T18:35:26.145Z,43.70
2019-02-07T18:37:54.933Z,46.20
2019-02-07T18:40:28.537Z,33.45
2019-02-07T18:42:57.201Z,56.30
2019-02-07T18:45:25.710Z,41.00
2019-02-07T18:47:54.136Z,47.17
2019-02-07T18:50:25.879Z,41.63
2019-02-07T18:52:54.445Z,39.15
2019-02-07T18:55:23.244Z,42.50
2019-02-07T18:57:51.981Z,42.58
2019-02-07T19:00:30.333Z,53.80
2019-02-07T19:02:59.309Z,41.33
2019-02-07T19:05:28.301Z,36.65
2019-02-07T19:07:56.897Z,45.65
2019-02-07T19:10:27.523Z,49.27
2019-02-07T19:12:56.741Z,43.68
2019-02-07T19:15:37.486Z,46.13
2019-02-07T19:18:06.999Z,48.38
2019-02-07T19:20:35.430Z,38.25
2019-02-07T19:23:05.197Z,48.70
2019-02-07T19:25:33.638Z,47.80
2019-02-07T19:28:02.314Z,52.90
2019-02-07T19:30:32.794Z,46.40
2019-02-07T19:33:01.457Z,43.50
2019-02-07T19:35:30.158Z,45.00
2019-02-07T19:37:58.938Z,45.55
2019-02-07T19:40:27.357Z,49.15
2019-02-07T19:42:56.643Z,49.55
2019-02-07T19:45:26.312Z,46.83
2019-02-07T19:47:54.813Z,45.08
2019-02-07T19:50:29.076Z,47.20
2019-02-07T19:52:57.702Z,44.85
2019-02-07T19:55:28.901Z,42.65
2019-02-07T19:57:57.885Z,44.95
2019-02-07T20:00:28.747Z,43.95
2019-02-07T20:02:57.930Z,50.88
2019-02-07T20:05:26.691Z,47.62
2019-02-07T20:07:55.139Z,48.80
2019-02-07T20:10:29.585Z,38.55
2019-02-07T20:12:58.929Z,43.98
2019-02-07T20:15:29.598Z,40.03
2019-02-07T20:17:59.981Z,42.05
2019-02-07T20:20:28.482Z,47.90
2019-02-07T20:22:57.206Z,44.75
2019-02-07T20:25:25.966Z,40.38
2019-02-07T20:27:54.731Z,37.28
2019-02-07T20:30:32.313Z,42.80
2019-02-07T20:33:00.965Z,36.70
2019-02-07T20:35:29.770Z,40.08
2019-02-07T20:37:58.749Z,35.40
2019-02-07T20:40:29.075Z,45.35
2019-02-07T20:42:57.580Z,35.68
2019-02-07T20:45:26.471Z,41.55
2019-02-07T20:47:55.329Z,48.35
2019-02-07T20:50:26.131Z,46.55
2019-02-07T20:52:54.884Z,38.02
2019-02-07T20:55:24.461Z,39.75
2019-02-07T20:57:54.178Z,34.43
2019-02-07T21:00:25.954Z,36.05
2019-02-07T21:02:56.145Z,37.73
2019-02-07T21:05:25.842Z,35.33
2019-02-07T21:07:59.375Z,41.08
2019-02-07T21:10:52.554Z,41.45
2019-02-07T21:13:21.340Z,38.17
2019-02-07T21:15:50.105Z,30.37
2019-02-07T21:18:18.722Z,41.75
2019-02-07T21:20:47.481Z,36.88
2019-02-07T21:23:16.265Z,42.08
2019-02-07T21:25:47.429Z,37.28
2019-02-07T21:28:16.304Z,43.40
2019-02-07T21:30:44.805Z,43.05
2019-02-07T21:33:14.593Z,36.03
2019-02-07T21:35:43.021Z,37.98
2019-02-07T21:38:11.462Z,35.05
2019-02-07T21:40:39.961Z,37.28
2019-02-07T21:43:08.525Z,35.43
2019-02-07T21:45:36.964Z,36.60
2019-02-07T21:48:08.358Z,43.42
2019-02-07T21:50:36.967Z,30.85
2019-02-07T21:53:05.465Z,36.55
2019-02-07T21:55:37.834Z,46.33
2019-02-07T21:58:08.465Z,39.78
2019-02-07T22:00:39.797Z,37.95
2019-02-07T22:03:10.696Z,42.55
2019-02-07T22:05:42.466Z,42.25
2019-02-07T22:08:11.468Z,47.48
2019-02-07T22:10:40.026Z,31.65
2019-02-07T22:13:08.857Z,41.73
2019-02-07T22:15:37.945Z,34.88
2019-02-07T22:18:07.814Z,43.80
2019-02-07T22:20:38.354Z,40.98
2019-02-07T22:23:06.625Z,48.17
2019-02-07T22:25:35.301Z,43.87
2019-02-07T22:28:04.361Z,51.15
2019-02-07T22:30:35.239Z,44.08
2019-02-07T22:33:04.305Z,39.73
2019-02-07T22:35:33.090Z,33.98
2019-02-07T22:38:01.581Z,36.33
2019-02-07T22:40:30.431Z,32.73
2019-02-07T22:43:00.689Z,36.45
2019-02-07T22:45:29.646Z,30.27
2019-02-07T22:47:58.401Z,39.13
2019-02-07T22:50:29.248Z,35.43
2019-02-07T22:52:59.017Z,31.57
2019-02-07T22:55:27.979Z,40.55
2019-02-07T22:57:56.644Z,39.55
2019-02-07T23:00:36.606Z,39.90
2019-02-07T23:03:07.237Z,39.03
2019-02-07T23:05:35.681Z,38.98
2019-02-07T23:08:04.792Z,45.50
2019-02-07T23:10:33.301Z,37.40
2019-02-07T23:13:03.817Z,35.78
2019-02-07T23:15:32.613Z,38.78
2019-02-07T23:18:01.248Z,38.30
2019-02-07T23:20:29.694Z,33.28
2019-02-07T23:23:04.855Z,37.42
2019-02-07T23:25:29.022Z,31.73
2019-02-07T23:27:57.986Z,37.90
2019-02-07T23:30:26.499Z,33.78
2019-02-07T23:32:54.921Z,37.15
2019-02-07T23:35:23.361Z,30.25
2019-02-07T23:37:51.787Z,29.07
2019-02-07T23:40:23.056Z,30.77
2019-02-07T23:42:51.824Z,42.20
2019-02-07T23:45:21.800Z,44.93
2019-02-07T23:47:50.757Z,38.25
2019-02-07T23:50:20.085Z,37.23
2019-02-07T23:52:48.518Z,28.23
2019-02-07T23:55:17.750Z,26.87
2019-02-07T23:57:47.245Z,30.62
